Overview Statistics Trail Chart Weather Telemetry Raw packets
 

This is the latest recevied weather packets stored in our database for station/object KD4EED. If no packets are shown the sender has not sent any weather packets the latest 10 day(s).

<< 95 96 97 98 99 100 101 >>
Time Temp. Humidity Pressure Rain* Wind** Luminosity Snow
1787967870 28.33° C 59% 1007.3 hPa - - 23 W/m² -
1787967567 28.89° C 58% 1007.4 hPa - - 33 W/m² -
1787967262 29.44° C 57% 1007.5 hPa - - 40 W/m² -
1787966959 29.44° C 56% 1007.5 hPa - - 37 W/m² -
1787966657 29.44° C 55% 1007.6 hPa - - 45 W/m² -
1787966355 29.44° C 55% 1007.4 hPa - - 58 W/m² -
1787966060 30° C 54% 1007.5 hPa - - 64 W/m² -
1787965750 30.56° C 53% 1007.6 hPa - - 69 W/m² -
1787965449 30.56° C 53% 1007.6 hPa - - 76 W/m² -
1787965149 30.56° C 52% 1007.7 hPa - - 83 W/m² -
1787964844 31.11° C 51% 1007.7 hPa - - 90 W/m² -
1787964539 31.11° C 51% 1007.7 hPa - - 95 W/m² -
1787964234 31.11° C 51% 1007.7 hPa - - 107 W/m² -
1787963932 31.67° C 51% 1007.7 hPa - - 116 W/m² -
1787963629 31.67° C 50% 1007.5 hPa - - 107 W/m² -
1787963328 31.67° C 50% 1007.8 hPa - - 148 W/m² -
1787963023 32.22° C 50% 1007.7 hPa - - 176 W/m² -
1787962723 32.22° C 49% 1007.7 hPa - - 191 W/m² -
1787962423 31.67° C 50% 1007.8 hPa - - 213 W/m² -
1787962121 31.67° C 51% 1007.5 hPa - - 225 W/m² -
1787961821 31.67° C 53% 1007.5 hPa - - 241 W/m² -
1787961519 31.67° C 54% 1007.6 hPa - - 257 W/m² -
1787961214 32.22° C 53% 1007.6 hPa - - 272 W/m² -
1787960913 32.22° C 53% 1007.8 hPa - - 280 W/m² -
1787960609 32.78° C 53% 1007.4 hPa - - 234 W/m² -

* Rain since midnight (hover to see other rain measurements)
** Current wind speed in m/s (hover to see current wind gust speed)